createdAt,value
2023-01-15T00:00:08.513Z,697.52
2023-01-15T00:00:18.520Z,696.96
2023-01-15T00:00:28.518Z,697.14
2023-01-15T00:00:38.517Z,697.41
2023-01-15T00:00:48.519Z,697.29
2023-01-15T00:00:58.538Z,697.18
2023-01-15T00:01:08.584Z,697.35
2023-01-15T00:01:18.565Z,697.18
2023-01-15T00:01:28.554Z,697.35
2023-01-15T00:01:38.526Z,696.98
2023-01-15T00:01:48.505Z,696.90
2023-01-15T00:01:58.524Z,696.94
2023-01-15T00:02:08.534Z,696.89
2023-01-15T00:02:18.551Z,696.69
2023-01-15T00:02:28.549Z,696.69
2023-01-15T00:02:38.632Z,696.58
2023-01-15T00:02:48.605Z,696.33
2023-01-15T00:02:58.577Z,696.15
2023-01-15T00:03:08.531Z,696.01
2023-01-15T00:03:18.528Z,695.95
2023-01-15T00:03:28.568Z,695.77
2023-01-15T00:03:38.585Z,695.49
2023-01-15T00:03:48.540Z,695.53
2023-01-15T00:03:58.555Z,695.75
2023-01-15T00:04:08.531Z,695.84
2023-01-15T00:04:18.539Z,695.87
2023-01-15T00:04:28.533Z,695.16
2023-01-15T00:04:38.552Z,696.12
2023-01-15T00:04:48.538Z,696.23
2023-01-15T00:04:58.537Z,696.01
2023-01-15T00:05:08.543Z,695.53
2023-01-15T00:05:18.538Z,695.69
2023-01-15T00:05:28.542Z,695.96
2023-01-15T00:05:38.542Z,695.97
2023-01-15T00:05:48.541Z,696.12
2023-01-15T00:05:58.545Z,696.32
2023-01-15T00:06:08.544Z,696.10
2023-01-15T00:06:18.543Z,695.84
2023-01-15T00:06:28.546Z,696.06
2023-01-15T00:06:38.551Z,696.23
2023-01-15T00:06:48.531Z,695.96
2023-01-15T00:06:58.549Z,695.77
2023-01-15T00:07:08.552Z,695.76
2023-01-15T00:07:18.554Z,695.27
2023-01-15T00:07:28.566Z,694.77
2023-01-15T00:07:38.553Z,695.45
2023-01-15T00:07:48.557Z,695.78
2023-01-15T00:07:58.555Z,695.40
2023-01-15T00:08:08.554Z,695.67
2023-01-15T00:08:18.553Z,696.86
2023-01-15T00:08:28.567Z,697.07
2023-01-15T00:08:38.553Z,697.62
2023-01-15T00:08:48.558Z,696.72
2023-01-15T00:08:58.557Z,697.07
2023-01-15T00:09:08.558Z,697.48
2023-01-15T00:09:18.559Z,697.24
2023-01-15T00:09:28.564Z,697.00
2023-01-15T00:09:38.560Z,698.09
2023-01-15T00:09:48.563Z,698.68
2023-01-15T00:09:58.584Z,698.17
2023-01-15T00:10:08.562Z,697.70
2023-01-15T00:10:18.577Z,697.70
2023-01-15T00:10:28.564Z,697.87
2023-01-15T00:10:38.568Z,697.35
2023-01-15T00:10:48.565Z,697.44
2023-01-15T00:10:58.575Z,697.91
2023-01-15T00:11:08.572Z,697.72
2023-01-15T00:11:18.567Z,698.37
2023-01-15T00:11:28.568Z,699.24
2023-01-15T00:11:38.568Z,698.94
2023-01-15T00:11:48.570Z,697.93
2023-01-15T00:11:58.606Z,697.92
2023-01-15T00:12:08.573Z,697.58
2023-01-15T00:12:18.581Z,697.31
2023-01-15T00:12:28.559Z,697.44
2023-01-15T00:12:38.571Z,697.48
2023-01-15T00:12:48.573Z,697.49
2023-01-15T00:12:58.558Z,696.94
2023-01-15T00:13:08.561Z,697.48
2023-01-15T00:13:18.576Z,697.47
2023-01-15T00:13:28.576Z,697.38
2023-01-15T00:13:38.592Z,697.42
2023-01-15T00:13:48.575Z,696.99
2023-01-15T00:13:58.575Z,696.95
2023-01-15T00:14:08.580Z,697.34
2023-01-15T00:14:18.578Z,697.42
2023-01-15T00:14:28.577Z,697.30
2023-01-15T00:14:38.582Z,697.27
2023-01-15T00:14:48.584Z,697.37
2023-01-15T00:14:58.575Z,697.42
2023-01-15T00:15:08.582Z,697.01
2023-01-15T00:15:18.588Z,696.82
2023-01-15T00:15:28.584Z,696.85
2023-01-15T00:15:38.663Z,697.08
2023-01-15T00:15:48.593Z,697.55
2023-01-15T00:15:58.637Z,697.74
2023-01-15T00:16:08.632Z,697.72
2023-01-15T00:16:18.672Z,697.19
2023-01-15T00:16:28.588Z,697.10
2023-01-15T00:16:38.584Z,697.19
2023-01-15T00:16:48.587Z,697.35
2023-01-15T00:16:58.589Z,697.09
2023-01-15T00:17:08.589Z,697.30
2023-01-15T00:17:18.599Z,697.35
2023-01-15T00:17:28.597Z,697.27
2023-01-15T00:17:38.588Z,697.24
2023-01-15T00:17:48.594Z,696.99
2023-01-15T00:17:58.591Z,696.91
2023-01-15T00:18:08.594Z,697.02
2023-01-15T00:18:18.593Z,696.79
2023-01-15T00:18:28.605Z,696.38
2023-01-15T00:18:38.592Z,696.07
2023-01-15T00:18:48.596Z,696.29
2023-01-15T00:18:58.594Z,696.52
2023-01-15T00:19:08.597Z,696.58
2023-01-15T00:19:18.595Z,696.18
2023-01-15T00:19:28.597Z,696.26
2023-01-15T00:19:38.628Z,696.46
2023-01-15T00:19:48.604Z,696.35
2023-01-15T00:19:58.600Z,696.08
2023-01-15T00:20:08.603Z,695.73
2023-01-15T00:20:18.604Z,695.59
2023-01-15T00:20:28.609Z,695.66
2023-01-15T00:20:38.604Z,695.54
2023-01-15T00:20:48.604Z,695.66
2023-01-15T00:20:58.586Z,695.84
2023-01-15T00:21:08.605Z,695.81
2023-01-15T00:21:18.609Z,696.27
2023-01-15T00:21:28.611Z,696.23
2023-01-15T00:21:38.621Z,696.13
2023-01-15T00:21:48.613Z,695.51
2023-01-15T00:21:58.611Z,695.49
2023-01-15T00:22:08.616Z,696.52
2023-01-15T00:22:18.653Z,695.82
2023-01-15T00:22:28.614Z,695.88
2023-01-15T00:22:38.611Z,695.96
2023-01-15T00:22:48.619Z,696.22
2023-01-15T00:22:58.612Z,696.26
2023-01-15T00:23:08.611Z,696.08
2023-01-15T00:23:18.614Z,695.82
2023-01-15T00:23:28.623Z,695.49
2023-01-15T00:23:38.616Z,695.09
2023-01-15T00:23:48.619Z,695.70
2023-01-15T00:23:58.620Z,695.64
2023-01-15T00:24:08.620Z,695.20
2023-01-15T00:24:18.620Z,695.25
2023-01-15T00:24:28.622Z,694.96
2023-01-15T00:24:38.624Z,695.27
2023-01-15T00:24:48.628Z,695.23
2023-01-15T00:24:58.623Z,695.34
2023-01-15T00:25:08.625Z,695.28
2023-01-15T00:25:18.622Z,695.20
2023-01-15T00:25:28.627Z,695.08
2023-01-15T00:25:38.630Z,694.72
2023-01-15T00:25:48.631Z,694.96
2023-01-15T00:25:58.635Z,694.70
2023-01-15T00:26:08.631Z,694.86
2023-01-15T00:26:18.634Z,695.47
2023-01-15T00:26:28.632Z,695.42
2023-01-15T00:26:38.635Z,695.26
2023-01-15T00:26:48.637Z,695.28
2023-01-15T00:26:58.644Z,695.24
2023-01-15T00:27:08.639Z,695.62
2023-01-15T00:27:18.643Z,695.58
2023-01-15T00:27:28.644Z,695.63
2023-01-15T00:27:38.683Z,695.70
2023-01-15T00:27:48.639Z,695.58
2023-01-15T00:28:00.941Z,695.86
2023-01-15T00:28:08.646Z,695.97
2023-01-15T00:28:18.644Z,696.00
2023-01-15T00:28:28.625Z,695.97
2023-01-15T00:28:38.648Z,695.93
2023-01-15T00:28:48.649Z,696.04
2023-01-15T00:28:58.674Z,696.15
2023-01-15T00:29:08.649Z,696.21
2023-01-15T00:29:18.647Z,696.31
2023-01-15T00:29:28.649Z,696.30
2023-01-15T00:29:38.646Z,696.17
2023-01-15T00:29:48.647Z,696.24
2023-01-15T00:29:58.649Z,696.36
2023-01-15T00:30:08.651Z,696.16
2023-01-15T00:30:18.651Z,696.20
2023-01-15T00:30:28.656Z,696.06
2023-01-15T00:30:38.654Z,696.33
2023-01-15T00:30:48.653Z,696.38
2023-01-15T00:30:58.682Z,696.49
2023-01-15T00:31:08.690Z,696.65
2023-01-15T00:31:18.734Z,696.49
2023-01-15T00:31:28.713Z,696.48
2023-01-15T00:31:38.653Z,696.52
2023-01-15T00:31:48.655Z,696.44
2023-01-15T00:31:58.660Z,696.34
2023-01-15T00:32:08.656Z,696.32
2023-01-15T00:32:18.656Z,696.55
2023-01-15T00:32:28.659Z,696.46
2023-01-15T00:32:38.658Z,696.35
2023-01-15T00:32:48.662Z,696.38
2023-01-15T00:32:58.672Z,696.46
2023-01-15T00:33:08.670Z,696.92
2023-01-15T00:33:18.666Z,697.40
2023-01-15T00:33:28.659Z,697.49
2023-01-15T00:33:38.662Z,697.40
2023-01-15T00:33:48.661Z,697.19
2023-01-15T00:33:58.659Z,697.26
2023-01-15T00:34:08.666Z,697.65
2023-01-15T00:34:18.671Z,697.87
2023-01-15T00:34:28.684Z,697.97
2023-01-15T00:34:38.665Z,697.93
2023-01-15T00:34:48.666Z,697.93
2023-01-15T00:34:58.656Z,697.97
2023-01-15T00:35:08.663Z,698.12
2023-01-15T00:35:18.675Z,698.08
2023-01-15T00:35:28.667Z,698.02
2023-01-15T00:35:38.665Z,697.79
2023-01-15T00:35:48.668Z,697.54
2023-01-15T00:35:58.668Z,697.41
2023-01-15T00:36:08.669Z,697.50
2023-01-15T00:36:18.670Z,697.51
2023-01-15T00:36:28.673Z,697.47
2023-01-15T00:36:38.672Z,697.34
2023-01-15T00:36:48.670Z,697.34
2023-01-15T00:36:58.690Z,697.41
2023-01-15T00:37:08.671Z,697.01
2023-01-15T00:37:18.680Z,697.09
2023-01-15T00:37:28.681Z,696.59
2023-01-15T00:37:38.675Z,696.88
2023-01-15T00:37:48.690Z,696.92
2023-01-15T00:37:58.679Z,696.62
2023-01-15T00:38:08.679Z,696.63
2023-01-15T00:38:18.680Z,696.42
2023-01-15T00:38:28.679Z,696.32
2023-01-15T00:38:38.667Z,696.42
2023-01-15T00:38:48.692Z,696.46
2023-01-15T00:38:58.685Z,696.22
2023-01-15T00:39:08.685Z,695.75
2023-01-15T00:39:18.685Z,695.74
2023-01-15T00:39:28.682Z,695.70
2023-01-15T00:39:38.688Z,696.14
2023-01-15T00:39:48.687Z,696.06
2023-01-15T00:39:58.691Z,696.22
2023-01-15T00:40:08.692Z,696.74
2023-01-15T00:40:18.692Z,696.28
2023-01-15T00:40:28.693Z,696.06
2023-01-15T00:40:38.693Z,695.89
2023-01-15T00:40:48.694Z,695.96
2023-01-15T00:40:58.693Z,696.14
2023-01-15T00:41:08.692Z,696.12
2023-01-15T00:41:18.695Z,696.24
2023-01-15T00:41:28.697Z,696.51
2023-01-15T00:41:38.700Z,696.36
2023-01-15T00:41:48.698Z,696.83
2023-01-15T00:41:58.680Z,696.74
2023-01-15T00:42:08.682Z,696.74
2023-01-15T00:42:18.709Z,696.87
2023-01-15T00:42:28.688Z,696.83
2023-01-15T00:42:38.702Z,696.60
2023-01-15T00:42:53.997Z,696.60
2023-01-15T00:42:59.703Z,696.65
2023-01-15T00:43:08.704Z,696.50
2023-01-15T00:43:18.705Z,696.54
2023-01-15T00:43:28.709Z,696.55
2023-01-15T00:43:38.707Z,696.53
2023-01-15T00:43:48.693Z,696.04
2023-01-15T00:43:58.721Z,695.79
2023-01-15T00:44:08.714Z,696.57
2023-01-15T00:44:18.713Z,696.18
2023-01-15T00:44:28.710Z,696.07
2023-01-15T00:44:38.711Z,696.68
2023-01-15T00:44:48.729Z,697.15
2023-01-15T00:44:58.711Z,697.45
2023-01-15T00:45:08.718Z,696.86
2023-01-15T00:45:18.717Z,696.86
2023-01-15T00:45:28.712Z,696.67
2023-01-15T00:45:38.717Z,696.54
2023-01-15T00:45:48.721Z,697.15
2023-01-15T00:45:58.719Z,696.89
2023-01-15T00:46:08.803Z,696.90
2023-01-15T00:46:18.744Z,696.71
2023-01-15T00:46:28.765Z,696.83
2023-01-15T00:46:38.749Z,697.31
2023-01-15T00:46:48.798Z,697.09
2023-01-15T00:46:58.723Z,697.28
2023-01-15T00:47:08.724Z,697.57
2023-01-15T00:47:18.731Z,697.17
2023-01-15T00:47:28.729Z,697.28
2023-01-15T00:47:38.744Z,697.08
2023-01-15T00:47:48.732Z,696.91
2023-01-15T00:47:58.724Z,696.84
2023-01-15T00:48:08.735Z,696.85
2023-01-15T00:48:18.730Z,696.84
2023-01-15T00:48:28.732Z,696.70
2023-01-15T00:48:38.731Z,696.89
2023-01-15T00:48:48.737Z,696.79
2023-01-15T00:48:58.742Z,696.62
2023-01-15T00:49:08.738Z,696.62
2023-01-15T00:49:18.734Z,696.65
2023-01-15T00:49:28.739Z,696.60
2023-01-15T00:49:38.736Z,696.09
2023-01-15T00:49:48.736Z,695.85
2023-01-15T00:49:58.739Z,696.10
2023-01-15T00:50:08.737Z,696.22
2023-01-15T00:50:18.742Z,696.61
2023-01-15T00:50:28.742Z,696.47
2023-01-15T00:50:38.741Z,696.47
2023-01-15T00:50:48.743Z,696.20
2023-01-15T00:50:58.746Z,696.37
2023-01-15T00:51:08.749Z,696.37
2023-01-15T00:51:18.744Z,696.36
2023-01-15T00:51:28.764Z,696.34
2023-01-15T00:51:38.758Z,696.33
2023-01-15T00:51:48.745Z,696.43
2023-01-15T00:51:58.753Z,696.41
2023-01-15T00:52:08.752Z,696.38
2023-01-15T00:52:18.748Z,696.43
2023-01-15T00:52:28.753Z,696.63
2023-01-15T00:52:38.753Z,696.43
2023-01-15T00:52:48.750Z,696.50
2023-01-15T00:52:58.753Z,696.04
2023-01-15T00:53:08.754Z,696.17
2023-01-15T00:53:18.753Z,696.10
2023-01-15T00:53:28.760Z,695.68
2023-01-15T00:53:38.756Z,695.71
2023-01-15T00:53:48.760Z,695.29
2023-01-15T00:53:58.757Z,695.50
2023-01-15T00:54:08.755Z,695.48
2023-01-15T00:54:18.760Z,695.72
2023-01-15T00:54:28.759Z,695.73
2023-01-15T00:54:38.773Z,695.55
2023-01-15T00:54:48.759Z,695.56
2023-01-15T00:54:58.762Z,695.34
2023-01-15T00:55:08.766Z,695.38
2023-01-15T00:55:18.763Z,695.36
2023-01-15T00:55:28.759Z,695.20
2023-01-15T00:55:38.761Z,695.40
2023-01-15T00:55:48.761Z,695.47
2023-01-15T00:55:58.765Z,695.48
2023-01-15T00:56:08.767Z,695.28
2023-01-15T00:56:18.771Z,695.04
2023-01-15T00:56:28.771Z,694.89
2023-01-15T00:56:38.766Z,694.66
2023-01-15T00:56:48.784Z,694.72
2023-01-15T00:56:58.790Z,694.88
2023-01-15T00:57:08.769Z,695.22
2023-01-15T00:57:18.769Z,695.05
2023-01-15T00:57:28.786Z,695.04
2023-01-15T00:57:38.770Z,695.05
2023-01-15T00:57:48.774Z,695.25
2023-01-15T00:57:58.771Z,695.28
2023-01-15T00:58:08.773Z,695.17
2023-01-15T00:58:18.779Z,694.89
2023-01-15T00:58:28.774Z,694.97
2023-01-15T00:58:38.775Z,695.12
2023-01-15T00:58:48.783Z,695.40
2023-01-15T00:58:58.781Z,695.36
2023-01-15T00:59:08.784Z,695.38
2023-01-15T00:59:18.776Z,695.24
2023-01-15T00:59:28.786Z,695.48
2023-01-15T00:59:38.777Z,695.45
2023-01-15T00:59:48.776Z,695.46
2023-01-15T00:59:58.778Z,695.37
2023-01-15T01:00:08.778Z,695.58
2023-01-15T01:00:18.781Z,695.67
2023-01-15T01:00:28.783Z,695.47
2023-01-15T01:00:38.847Z,695.52
2023-01-15T01:00:48.813Z,695.59
2023-01-15T01:00:58.845Z,695.67
2023-01-15T01:01:08.868Z,695.49
2023-01-15T01:01:18.851Z,695.37
2023-01-15T01:01:28.897Z,695.53
2023-01-15T01:01:39.018Z,695.52
2023-01-15T01:01:48.925Z,695.54
2023-01-15T01:01:58.941Z,695.64
2023-01-15T01:02:08.894Z,695.48
2023-01-15T01:02:18.893Z,695.57
2023-01-15T01:02:28.878Z,695.58
2023-01-15T01:02:38.870Z,695.55
2023-01-15T01:02:48.791Z,695.44
2023-01-15T01:02:58.793Z,695.23
2023-01-15T01:03:08.787Z,695.13
2023-01-15T01:03:18.791Z,694.99
2023-01-15T01:03:28.804Z,695.09
2023-01-15T01:03:38.803Z,695.24
2023-01-15T01:03:48.825Z,695.24
2023-01-15T01:03:58.794Z,695.27
2023-01-15T01:04:08.792Z,695.29
2023-01-15T01:04:18.793Z,695.37
2023-01-15T01:04:28.779Z,695.55
2023-01-15T01:04:38.795Z,695.48
2023-01-15T01:04:48.800Z,695.32
2023-01-15T01:04:58.804Z,695.21
2023-01-15T01:05:08.799Z,695.12
2023-01-15T01:05:18.812Z,695.03
2023-01-15T01:05:28.807Z,694.70
2023-01-15T01:05:38.803Z,694.76
2023-01-15T01:05:48.801Z,694.87
2023-01-15T01:05:58.802Z,694.80
2023-01-15T01:06:08.800Z,694.71
2023-01-15T01:06:18.801Z,694.96
2023-01-15T01:06:28.803Z,695.21
2023-01-15T01:06:38.804Z,695.25
2023-01-15T01:06:48.806Z,695.21
2023-01-15T01:06:58.821Z,695.31
2023-01-15T01:07:08.808Z,695.10
2023-01-15T01:07:18.823Z,695.05
2023-01-15T01:07:28.814Z,695.22
2023-01-15T01:07:38.813Z,695.21
2023-01-15T01:07:48.793Z,695.27
2023-01-15T01:07:58.811Z,695.12
2023-01-15T01:08:08.815Z,694.84
2023-01-15T01:08:18.834Z,695.07
2023-01-15T01:08:28.818Z,694.55
2023-01-15T01:08:38.817Z,694.83
2023-01-15T01:08:48.823Z,695.39
2023-01-15T01:08:58.819Z,695.26
2023-01-15T01:09:08.804Z,695.05
2023-01-15T01:09:18.820Z,694.68
2023-01-15T01:09:28.818Z,694.77
2023-01-15T01:09:38.821Z,694.90
2023-01-15T01:09:48.832Z,694.85
2023-01-15T01:09:58.821Z,694.67
2023-01-15T01:10:08.831Z,694.37
2023-01-15T01:10:18.820Z,694.14
2023-01-15T01:10:28.822Z,694.10
2023-01-15T01:10:38.825Z,694.17
2023-01-15T01:10:48.822Z,693.84
2023-01-15T01:10:58.826Z,695.29
2023-01-15T01:11:08.825Z,695.30
2023-01-15T01:11:18.837Z,694.32
2023-01-15T01:11:28.828Z,694.25
2023-01-15T01:11:38.828Z,694.34
2023-01-15T01:11:48.829Z,693.92
2023-01-15T01:11:58.829Z,694.25
2023-01-15T01:12:08.840Z,694.46
2023-01-15T01:12:18.831Z,694.07
2023-01-15T01:12:28.827Z,693.88
2023-01-15T01:12:38.845Z,694.28
2023-01-15T01:12:48.839Z,693.99
2023-01-15T01:12:58.839Z,693.98
2023-01-15T01:13:08.857Z,693.74
2023-01-15T01:13:18.833Z,693.38
2023-01-15T01:13:28.833Z,693.47
2023-01-15T01:13:38.837Z,693.42
2023-01-15T01:13:48.837Z,693.07
2023-01-15T01:13:58.834Z,693.00
2023-01-15T01:14:08.836Z,693.08
2023-01-15T01:14:18.848Z,692.99
2023-01-15T01:14:28.836Z,692.94
2023-01-15T01:14:38.839Z,692.26
2023-01-15T01:14:48.871Z,692.42
2023-01-15T01:14:58.841Z,692.84
2023-01-15T01:15:08.841Z,692.92
2023-01-15T01:15:18.839Z,693.37
2023-01-15T01:15:28.846Z,693.55
2023-01-15T01:15:38.846Z,693.43
2023-01-15T01:15:48.852Z,693.22
2023-01-15T01:15:58.891Z,693.27
2023-01-15T01:16:08.876Z,693.01
2023-01-15T01:16:18.954Z,693.12
2023-01-15T01:16:28.946Z,693.09
2023-01-15T01:16:38.852Z,692.63
2023-01-15T01:16:48.850Z,692.83
2023-01-15T01:16:58.851Z,693.17
2023-01-15T01:17:08.852Z,693.50
2023-01-15T01:17:18.852Z,693.55
2023-01-15T01:17:28.864Z,693.08
2023-01-15T01:17:38.885Z,692.88
2023-01-15T01:17:48.863Z,692.90
2023-01-15T01:17:58.853Z,693.39
2023-01-15T01:18:08.856Z,693.20
2023-01-15T01:18:18.857Z,692.94
2023-01-15T01:18:28.857Z,692.91
2023-01-15T01:18:38.859Z,692.50
2023-01-15T01:18:48.859Z,692.28
2023-01-15T01:18:58.864Z,692.23
2023-01-15T01:19:08.865Z,692.40
2023-01-15T01:19:18.865Z,692.28
2023-01-15T01:19:28.861Z,692.47
2023-01-15T01:19:38.865Z,692.50
2023-01-15T01:19:48.889Z,692.44
2023-01-15T01:19:58.864Z,692.03
2023-01-15T01:20:08.871Z,692.10
2023-01-15T01:20:18.866Z,692.37
2023-01-15T01:20:28.865Z,692.43
2023-01-15T01:20:38.867Z,691.87
2023-01-15T01:20:48.869Z,691.62
2023-01-15T01:20:58.868Z,692.14
2023-01-15T01:21:08.869Z,691.88
2023-01-15T01:21:18.870Z,692.11
2023-01-15T01:21:28.874Z,692.19
2023-01-15T01:21:38.870Z,692.66
2023-01-15T01:21:48.878Z,692.20
2023-01-15T01:21:58.875Z,691.92
2023-01-15T01:22:08.872Z,691.74
2023-01-15T01:22:18.872Z,691.99
2023-01-15T01:22:28.869Z,692.03
2023-01-15T01:22:38.876Z,692.14
2023-01-15T01:22:48.873Z,691.93
2023-01-15T01:22:58.879Z,691.84
2023-01-15T01:23:08.875Z,692.04
2023-01-15T01:23:18.876Z,691.85
2023-01-15T01:23:28.877Z,692.02
2023-01-15T01:23:38.878Z,692.35
2023-01-15T01:23:48.882Z,692.49
2023-01-15T01:23:58.881Z,692.45
2023-01-15T01:24:08.886Z,692.28
2023-01-15T01:24:18.881Z,692.25
2023-01-15T01:24:28.881Z,692.52
2023-01-15T01:24:38.881Z,692.50
2023-01-15T01:24:48.889Z,692.39
2023-01-15T01:24:58.887Z,692.40
2023-01-15T01:25:08.899Z,692.30
2023-01-15T01:25:18.889Z,692.39
2023-01-15T01:25:28.897Z,692.27
2023-01-15T01:25:38.888Z,692.25
2023-01-15T01:25:48.891Z,692.12
2023-01-15T01:25:58.891Z,692.03
2023-01-15T01:26:08.909Z,692.08
2023-01-15T01:26:18.894Z,691.90
2023-01-15T01:26:28.899Z,692.09
2023-01-15T01:26:38.896Z,692.13
2023-01-15T01:26:48.908Z,691.95
2023-01-15T01:26:58.899Z,692.01
2023-01-15T01:27:08.901Z,691.77
2023-01-15T01:27:18.899Z,691.68
2023-01-15T01:27:28.898Z,691.36
2023-01-15T01:27:38.915Z,691.81
2023-01-15T01:27:48.899Z,691.99
2023-01-15T01:27:58.902Z,691.95
2023-01-15T01:28:08.900Z,692.16
2023-01-15T01:28:18.899Z,691.75
2023-01-15T01:28:28.903Z,691.53
2023-01-15T01:28:38.903Z,691.64
2023-01-15T01:28:48.906Z,691.74
2023-01-15T01:28:58.917Z,691.83
2023-01-15T01:29:08.909Z,691.58
2023-01-15T01:29:18.913Z,691.43
2023-01-15T01:29:28.910Z,691.23
2023-01-15T01:29:38.910Z,691.00
2023-01-15T01:29:48.913Z,690.82
2023-01-15T01:29:58.910Z,691.02
2023-01-15T01:30:08.917Z,691.24
2023-01-15T01:30:18.914Z,691.16
2023-01-15T01:30:28.912Z,691.12
2023-01-15T01:30:38.911Z,690.99
2023-01-15T01:30:48.911Z,691.00
2023-01-15T01:30:58.923Z,690.86
2023-01-15T01:31:08.975Z,690.65
2023-01-15T01:31:18.961Z,690.90
2023-01-15T01:31:28.998Z,691.32
2023-01-15T01:31:38.985Z,691.31
2023-01-15T01:31:48.986Z,691.22
2023-01-15T01:31:58.902Z,691.00
2023-01-15T01:32:08.924Z,690.71
2023-01-15T01:32:18.930Z,691.23
2023-01-15T01:32:28.920Z,691.05
2023-01-15T01:32:38.954Z,691.32
2023-01-15T01:32:48.942Z,691.09
2023-01-15T01:32:58.925Z,691.08
2023-01-15T01:33:08.950Z,691.29
2023-01-15T01:33:18.929Z,691.31
2023-01-15T01:33:28.925Z,691.39
2023-01-15T01:33:38.925Z,691.34
2023-01-15T01:33:48.944Z,691.44
2023-01-15T01:33:58.930Z,691.39
2023-01-15T01:34:08.931Z,691.39
2023-01-15T01:34:18.936Z,691.50
2023-01-15T01:34:28.933Z,690.89
2023-01-15T01:34:38.947Z,690.71
2023-01-15T01:34:48.939Z,691.27
2023-01-15T01:34:58.939Z,691.22
2023-01-15T01:35:08.933Z,691.12
2023-01-15T01:35:18.937Z,691.13
2023-01-15T01:35:28.934Z,691.04
2023-01-15T01:35:38.933Z,690.80
2023-01-15T01:35:48.935Z,690.73
2023-01-15T01:35:58.938Z,690.52
2023-01-15T01:36:08.939Z,690.05
2023-01-15T01:36:18.942Z,689.61
2023-01-15T01:36:28.942Z,689.83
2023-01-15T01:36:38.945Z,690.20
2023-01-15T01:36:48.943Z,690.14
2023-01-15T01:36:58.952Z,690.21
2023-01-15T01:37:08.946Z,690.68
2023-01-15T01:37:18.948Z,690.86
2023-01-15T01:37:28.946Z,690.52
2023-01-15T01:37:38.957Z,690.28
2023-01-15T01:37:48.949Z,690.25
2023-01-15T01:37:58.948Z,690.54
2023-01-15T01:38:08.952Z,690.88
2023-01-15T01:38:18.962Z,690.58
2023-01-15T01:38:28.951Z,690.59
2023-01-15T01:38:38.953Z,690.32
2023-01-15T01:38:48.951Z,690.58
2023-01-15T01:38:58.966Z,690.51
2023-01-15T01:39:08.956Z,689.98
2023-01-15T01:39:18.957Z,690.28
2023-01-15T01:39:28.955Z,691.00
2023-01-15T01:39:38.956Z,691.61
2023-01-15T01:39:48.964Z,691.03
2023-01-15T01:39:58.958Z,690.79
2023-01-15T01:40:08.957Z,690.35
2023-01-15T01:40:18.964Z,690.07
2023-01-15T01:40:28.957Z,689.99
2023-01-15T01:40:38.958Z,689.95
2023-01-15T01:40:48.959Z,690.70
2023-01-15T01:40:58.961Z,691.29
2023-01-15T01:41:08.988Z,690.95
2023-01-15T01:41:18.961Z,690.11
2023-01-15T01:41:28.983Z,690.10
2023-01-15T01:41:38.962Z,689.81
2023-01-15T01:41:48.964Z,689.70
2023-01-15T01:41:58.966Z,689.77
2023-01-15T01:42:08.967Z,689.94
2023-01-15T01:42:18.975Z,689.92
2023-01-15T01:42:28.978Z,689.98
2023-01-15T01:42:38.970Z,690.29
2023-01-15T01:42:48.972Z,690.15
2023-01-15T01:42:58.971Z,690.22
2023-01-15T01:43:08.973Z,690.37
2023-01-15T01:43:18.974Z,690.20
2023-01-15T01:43:28.972Z,690.32
2023-01-15T01:43:38.975Z,690.46
2023-01-15T01:43:48.975Z,690.65
2023-01-15T01:43:58.974Z,690.48
2023-01-15T01:44:08.999Z,690.25
2023-01-15T01:44:18.978Z,689.97
2023-01-15T01:44:28.978Z,690.05
2023-01-15T01:44:38.979Z,689.89
2023-01-15T01:44:48.979Z,689.96
2023-01-15T01:44:58.977Z,690.28
2023-01-15T01:45:08.997Z,690.35
2023-01-15T01:45:18.969Z,690.25
2023-01-15T01:45:29.073Z,690.03
2023-01-15T01:45:39.050Z,690.05
2023-01-15T01:45:49.029Z,690.07
2023-01-15T01:45:59.107Z,690.03
2023-01-15T01:46:08.987Z,689.94
2023-01-15T01:46:18.986Z,689.90
2023-01-15T01:46:28.988Z,690.09
2023-01-15T01:46:38.987Z,690.27
2023-01-15T01:46:48.987Z,690.43
2023-01-15T01:46:58.988Z,690.29
2023-01-15T01:47:08.989Z,690.09
2023-01-15T01:47:18.990Z,690.19
2023-01-15T01:47:28.990Z,690.23
2023-01-15T01:47:39.001Z,689.94
2023-01-15T01:47:48.994Z,689.97
2023-01-15T01:47:58.992Z,690.12
2023-01-15T01:48:08.995Z,690.68
2023-01-15T01:48:18.996Z,690.58
2023-01-15T01:48:28.996Z,690.17
2023-01-15T01:48:39.010Z,690.85
2023-01-15T01:48:48.998Z,690.25
2023-01-15T01:48:58.998Z,690.83
2023-01-15T01:49:09.000Z,690.34
2023-01-15T01:49:18.998Z,690.37
2023-01-15T01:49:29.000Z,690.14
2023-01-15T01:49:39.005Z,690.24
2023-01-15T01:49:49.001Z,690.45
2023-01-15T01:49:59.002Z,690.33
2023-01-15T01:50:09.004Z,690.32
2023-01-15T01:50:19.007Z,689.87
2023-01-15T01:50:29.015Z,689.86
2023-01-15T01:50:39.011Z,690.05
2023-01-15T01:50:49.015Z,689.89
2023-01-15T01:50:59.021Z,689.33
2023-01-15T01:51:09.011Z,689.68
2023-01-15T01:51:19.009Z,690.18
2023-01-15T01:51:29.019Z,690.43
2023-01-15T01:51:39.015Z,690.33
2023-01-15T01:51:49.012Z,690.68
2023-01-15T01:51:59.032Z,690.65
2023-01-15T01:52:09.011Z,690.33
2023-01-15T01:52:19.014Z,690.34
2023-01-15T01:52:29.018Z,690.15
2023-01-15T01:52:39.025Z,690.11
2023-01-15T01:52:49.023Z,690.10
2023-01-15T01:52:59.017Z,689.97
2023-01-15T01:53:09.027Z,690.16
2023-01-15T01:53:19.051Z,690.29
2023-01-15T01:53:29.036Z,690.32
2023-01-15T01:53:39.021Z,690.27
2023-01-15T01:53:49.026Z,690.48
2023-01-15T01:53:59.020Z,690.72
2023-01-15T01:54:09.026Z,690.72
2023-01-15T01:54:19.019Z,690.50
2023-01-15T01:54:29.023Z,690.34
2023-01-15T01:54:39.025Z,690.33
2023-01-15T01:54:49.022Z,690.47
2023-01-15T01:54:59.021Z,690.64
2023-01-15T01:55:09.037Z,690.70
2023-01-15T01:55:19.026Z,690.64
2023-01-15T01:55:29.027Z,690.51
2023-01-15T01:55:39.039Z,690.48
2023-01-15T01:55:49.026Z,690.20
2023-01-15T01:55:59.027Z,690.07
2023-01-15T01:56:09.036Z,690.24
2023-01-15T01:56:19.028Z,690.30
2023-01-15T01:56:29.028Z,690.28
2023-01-15T01:56:39.030Z,690.44
2023-01-15T01:56:49.032Z,690.46
2023-01-15T01:56:59.034Z,690.26
2023-01-15T01:57:09.039Z,690.17
2023-01-15T01:57:19.055Z,690.37
2023-01-15T01:57:29.034Z,690.65
2023-01-15T01:57:39.032Z,690.35
2023-01-15T01:57:49.039Z,690.15
2023-01-15T01:57:59.044Z,690.24
2023-01-15T01:58:09.017Z,690.17
2023-01-15T01:58:19.037Z,690.39
2023-01-15T01:58:29.036Z,690.66
2023-01-15T01:58:39.048Z,690.31
2023-01-15T01:58:49.039Z,690.61
2023-01-15T01:58:59.041Z,690.37
2023-01-15T01:59:09.042Z,690.76
2023-01-15T01:59:19.044Z,690.49
2023-01-15T01:59:29.043Z,690.47
2023-01-15T01:59:39.053Z,690.34
2023-01-15T01:59:49.045Z,690.63
2023-01-15T01:59:59.053Z,690.57
2023-01-15T02:00:09.048Z,690.35
2023-01-15T02:00:19.065Z,690.18
2023-01-15T02:00:29.046Z,689.83
2023-01-15T02:00:39.076Z,689.80
2023-01-15T02:00:49.118Z,689.98
2023-01-15T02:00:59.227Z,690.17
2023-01-15T02:01:09.143Z,690.05
2023-01-15T02:01:19.108Z,690.02
2023-01-15T02:01:29.167Z,690.66
2023-01-15T02:01:39.235Z,690.65
2023-01-15T02:01:49.153Z,690.44
2023-01-15T02:01:59.188Z,690.31
2023-01-15T02:02:09.202Z,690.42
2023-01-15T02:02:19.099Z,690.28
2023-01-15T02:02:29.167Z,690.08
2023-01-15T02:02:39.059Z,690.02
2023-01-15T02:02:49.057Z,690.33
2023-01-15T02:02:59.076Z,690.51
2023-01-15T02:03:09.068Z,690.61
2023-01-15T02:03:19.059Z,690.35
2023-01-15T02:03:29.060Z,690.24
2023-01-15T02:03:39.059Z,690.53
2023-01-15T02:03:49.059Z,690.87
2023-01-15T02:03:59.061Z,690.78
2023-01-15T02:04:09.059Z,690.45
2023-01-15T02:04:19.065Z,690.22
2023-01-15T02:04:29.077Z,690.43
2023-01-15T02:04:39.062Z,690.57
2023-01-15T02:04:49.063Z,690.57